sensor_id;sensor_type;location;lat;lon;timestamp;P1;durP1;ratioP1;P2;durP2;ratioP2
20294;SDS011;10306;52.128;5.208;2023-10-09T00:01:24;38.07;;;21.07;;
20294;SDS011;10306;52.128;5.208;2023-10-09T00:03:50;44.83;;;24.00;;
20294;SDS011;10306;52.128;5.208;2023-10-09T00:06:21;50.43;;;24.80;;
20294;SDS011;10306;52.128;5.208;2023-10-09T00:08:56;47.37;;;22.77;;
20294;SDS011;10306;52.128;5.208;2023-10-09T00:11:22;46.30;;;23.43;;
20294;SDS011;10306;52.128;5.208;2023-10-09T00:13:54;43.80;;;23.53;;
20294;SDS011;10306;52.128;5.208;2023-10-09T00:16:25;43.83;;;23.57;;
20294;SDS011;10306;52.128;5.208;2023-10-09T00:19:05;45.37;;;23.60;;
20294;SDS011;10306;52.128;5.208;2023-10-09T00:21:42;46.83;;;24.60;;
20294;SDS011;10306;52.128;5.208;2023-10-09T00:24:09;43.10;;;23.60;;
20294;SDS011;10306;52.128;5.208;2023-10-09T00:26:39;40.57;;;22.63;;
20294;SDS011;10306;52.128;5.208;2023-10-09T00:29:09;43.23;;;23.30;;
20294;SDS011;10306;52.128;5.208;2023-10-09T00:31:47;42.43;;;23.50;;
20294;SDS011;10306;52.128;5.208;2023-10-09T00:34:17;40.77;;;23.27;;
20294;SDS011;10306;52.128;5.208;2023-10-09T00:36:47;45.03;;;24.33;;
20294;SDS011;10306;52.128;5.208;2023-10-09T00:39:19;43.57;;;24.60;;
20294;SDS011;10306;52.128;5.208;2023-10-09T00:42:06;41.50;;;24.10;;
20294;SDS011;10306;52.128;5.208;2023-10-09T00:44:32;40.13;;;24.33;;
20294;SDS011;10306;52.128;5.208;2023-10-09T00:47:10;45.90;;;24.83;;
20294;SDS011;10306;52.128;5.208;2023-10-09T00:49:57;38.30;;;23.77;;
20294;SDS011;10306;52.128;5.208;2023-10-09T00:52:32;42.13;;;24.73;;
20294;SDS011;10306;52.128;5.208;2023-10-09T00:55:04;37.87;;;23.90;;
20294;SDS011;10306;52.128;5.208;2023-10-09T00:57:39;38.77;;;24.17;;
20294;SDS011;10306;52.128;5.208;2023-10-09T01:00:05;36.00;;;22.27;;
20294;SDS011;10306;52.128;5.208;2023-10-09T01:02:48;38.43;;;22.90;;
20294;SDS011;10306;52.128;5.208;2023-10-09T01:05:34;38.53;;;21.83;;
20294;SDS011;10306;52.128;5.208;2023-10-09T01:08:01;32.17;;;21.23;;
20294;SDS011;10306;52.128;5.208;2023-10-09T01:10:44;37.23;;;22.50;;
20294;SDS011;10306;52.128;5.208;2023-10-09T01:13:15;34.17;;;22.57;;
20294;SDS011;10306;52.128;5.208;2023-10-09T01:15:43;30.97;;;20.93;;
20294;SDS011;10306;52.128;5.208;2023-10-09T01:18:10;34.13;;;21.67;;
20294;SDS011;10306;52.128;5.208;2023-10-09T01:20:37;28.53;;;21.57;;
20294;SDS011;10306;52.128;5.208;2023-10-09T01:23:10;29.50;;;20.43;;
20294;SDS011;10306;52.128;5.208;2023-10-09T01:25:36;34.00;;;20.67;;
20294;SDS011;10306;52.128;5.208;2023-10-09T01:28:10;31.63;;;19.93;;
20294;SDS011;10306;52.128;5.208;2023-10-09T01:30:40;27.73;;;19.37;;
20294;SDS011;10306;52.128;5.208;2023-10-09T01:33:07;28.47;;;20.43;;
20294;SDS011;10306;52.128;5.208;2023-10-09T01:35:40;32.87;;;19.87;;
20294;SDS011;10306;52.128;5.208;2023-10-09T01:38:13;33.07;;;20.53;;
20294;SDS011;10306;52.128;5.208;2023-10-09T01:40:40;26.77;;;18.60;;
20294;SDS011;10306;52.128;5.208;2023-10-09T01:43:06;25.03;;;18.30;;
20294;SDS011;10306;52.128;5.208;2023-10-09T01:45:35;26.33;;;18.60;;
20294;SDS011;10306;52.128;5.208;2023-10-09T01:48:07;27.00;;;18.67;;
20294;SDS011;10306;52.128;5.208;2023-10-09T01:50:34;29.07;;;18.40;;
20294;SDS011;10306;52.128;5.208;2023-10-09T01:53:03;25.93;;;17.83;;
20294;SDS011;10306;52.128;5.208;2023-10-09T01:55:33;28.50;;;17.63;;
20294;SDS011;10306;52.128;5.208;2023-10-09T01:57:59;21.37;;;17.20;;
20294;SDS011;10306;52.128;5.208;2023-10-09T02:00:30;24.23;;;16.93;;
20294;SDS011;10306;52.128;5.208;2023-10-09T02:03:00;22.33;;;16.77;;
20294;SDS011;10306;52.128;5.208;2023-10-09T02:05:30;23.90;;;17.00;;
20294;SDS011;10306;52.128;5.208;2023-10-09T02:08:01;25.33;;;17.10;;
20294;SDS011;10306;52.128;5.208;2023-10-09T02:10:29;20.87;;;15.97;;
20294;SDS011;10306;52.128;5.208;2023-10-09T02:12:59;23.87;;;15.87;;
20294;SDS011;10306;52.128;5.208;2023-10-09T02:15:25;22.87;;;15.40;;
20294;SDS011;10306;52.128;5.208;2023-10-09T02:18:07;20.77;;;15.23;;
20294;SDS011;10306;52.128;5.208;2023-10-09T02:23:37;18.67;;;13.70;;
20294;SDS011;10306;52.128;5.208;2023-10-09T02:26:17;16.10;;;13.23;;
20294;SDS011;10306;52.128;5.208;2023-10-09T02:29:04;19.93;;;13.57;;
20294;SDS011;10306;52.128;5.208;2023-10-09T02:31:51;14.37;;;11.77;;
20294;SDS011;10306;52.128;5.208;2023-10-09T02:34:17;17.87;;;12.07;;
20294;SDS011;10306;52.128;5.208;2023-10-09T02:36:50;17.00;;;11.97;;
20294;SDS011;10306;52.128;5.208;2023-10-09T02:39:25;18.50;;;12.13;;
20294;SDS011;10306;52.128;5.208;2023-10-09T02:41:51;17.13;;;11.83;;
20294;SDS011;10306;52.128;5.208;2023-10-09T02:44:26;19.47;;;12.33;;
20294;SDS011;10306;52.128;5.208;2023-10-09T02:46:54;17.00;;;12.67;;
20294;SDS011;10306;52.128;5.208;2023-10-09T02:49:23;16.63;;;11.83;;
20294;SDS011;10306;52.128;5.208;2023-10-09T02:51:49;20.30;;;12.10;;
20294;SDS011;10306;52.128;5.208;2023-10-09T02:54:18;17.13;;;12.93;;
20294;SDS011;10306;52.128;5.208;2023-10-09T02:56:52;17.83;;;13.43;;
20294;SDS011;10306;52.128;5.208;2023-10-09T02:59:30;23.20;;;13.33;;
20294;SDS011;10306;52.128;5.208;2023-10-09T03:01:56;22.63;;;13.13;;
20294;SDS011;10306;52.128;5.208;2023-10-09T03:04:24;21.27;;;13.57;;
20294;SDS011;10306;52.128;5.208;2023-10-09T03:06:55;16.90;;;13.33;;
20294;SDS011;10306;52.128;5.208;2023-10-09T03:09:22;20.60;;;14.00;;
20294;SDS011;10306;52.128;5.208;2023-10-09T03:11:52;20.83;;;13.63;;
20294;SDS011;10306;52.128;5.208;2023-10-09T03:14:19;26.17;;;13.57;;
20294;SDS011;10306;52.128;5.208;2023-10-09T03:16:46;20.43;;;12.07;;
20294;SDS011;10306;52.128;5.208;2023-10-09T03:19:14;16.33;;;11.47;;
20294;SDS011;10306;52.128;5.208;2023-10-09T03:21:40;16.27;;;11.43;;
20294;SDS011;10306;52.128;5.208;2023-10-09T03:24:06;16.00;;;11.73;;
20294;SDS011;10306;52.128;5.208;2023-10-09T03:26:33;19.47;;;11.73;;
20294;SDS011;10306;52.128;5.208;2023-10-09T03:28:59;14.30;;;10.20;;
20294;SDS011;10306;52.128;5.208;2023-10-09T03:31:31;16.63;;;11.03;;
20294;SDS011;10306;52.128;5.208;2023-10-09T03:33:58;17.23;;;11.80;;
20294;SDS011;10306;52.128;5.208;2023-10-09T03:36:24;14.13;;;11.13;;
20294;SDS011;10306;52.128;5.208;2023-10-09T03:38:54;17.33;;;11.90;;
20294;SDS011;10306;52.128;5.208;2023-10-09T03:41:23;14.53;;;10.43;;
20294;SDS011;10306;52.128;5.208;2023-10-09T03:43:51;16.73;;;12.37;;
20294;SDS011;10306;52.128;5.208;2023-10-09T03:46:17;18.27;;;12.37;;
20294;SDS011;10306;52.128;5.208;2023-10-09T03:48:51;16.23;;;12.47;;
20294;SDS011;10306;52.128;5.208;2023-10-09T03:51:22;19.93;;;12.23;;
20294;SDS011;10306;52.128;5.208;2023-10-09T03:53:48;21.53;;;14.53;;
20294;SDS011;10306;52.128;5.208;2023-10-09T03:56:15;20.27;;;13.00;;
20294;SDS011;10306;52.128;5.208;2023-10-09T03:58:42;19.83;;;12.57;;
20294;SDS011;10306;52.128;5.208;2023-10-09T04:01:09;14.57;;;12.17;;
20294;SDS011;10306;52.128;5.208;2023-10-09T04:03:42;17.97;;;13.13;;
20294;SDS011;10306;52.128;5.208;2023-10-09T04:06:08;15.90;;;12.37;;
20294;SDS011;10306;52.128;5.208;2023-10-09T04:08:36;15.57;;;12.30;;
20294;SDS011;10306;52.128;5.208;2023-10-09T04:11:04;15.30;;;11.97;;
20294;SDS011;10306;52.128;5.208;2023-10-09T04:13:41;18.37;;;12.07;;
20294;SDS011;10306;52.128;5.208;2023-10-09T04:16:06;17.43;;;12.10;;
20294;SDS011;10306;52.128;5.208;2023-10-09T04:18:59;18.43;;;12.47;;
20294;SDS011;10306;52.128;5.208;2023-10-09T04:21:31;21.10;;;12.67;;
20294;SDS011;10306;52.128;5.208;2023-10-09T04:24:04;17.43;;;12.43;;
20294;SDS011;10306;52.128;5.208;2023-10-09T04:26:47;18.73;;;12.60;;
20294;SDS011;10306;52.128;5.208;2023-10-09T04:29:13;18.47;;;13.13;;
20294;SDS011;10306;52.128;5.208;2023-10-09T04:32:05;15.53;;;12.77;;
20294;SDS011;10306;52.128;5.208;2023-10-09T04:34:33;22.13;;;13.73;;
20294;SDS011;10306;52.128;5.208;2023-10-09T04:37:13;21.03;;;11.93;;
20294;SDS011;10306;52.128;5.208;2023-10-09T04:39:39;19.30;;;12.43;;
20294;SDS011;10306;52.128;5.208;2023-10-09T04:42:12;19.20;;;12.10;;
20294;SDS011;10306;52.128;5.208;2023-10-09T04:44:50;13.90;;;11.93;;
20294;SDS011;10306;52.128;5.208;2023-10-09T04:47:29;17.33;;;12.90;;
20294;SDS011;10306;52.128;5.208;2023-10-09T04:50:08;13.53;;;11.50;;
20294;SDS011;10306;52.128;5.208;2023-10-09T04:52:37;17.50;;;11.43;;
20294;SDS011;10306;52.128;5.208;2023-10-09T04:55:03;13.50;;;11.30;;
20294;SDS011;10306;52.128;5.208;2023-10-09T04:57:41;15.00;;;11.17;;
20294;SDS011;10306;52.128;5.208;2023-10-09T05:00:16;14.30;;;10.97;;
20294;SDS011;10306;52.128;5.208;2023-10-09T05:02:53;14.53;;;10.20;;
20294;SDS011;10306;52.128;5.208;2023-10-09T05:05:23;13.90;;;10.50;;
20294;SDS011;10306;52.128;5.208;2023-10-09T05:08:14;19.60;;;11.60;;
20294;SDS011;10306;52.128;5.208;2023-10-09T05:10:53;15.50;;;11.27;;
20294;SDS011;10306;52.128;5.208;2023-10-09T05:13:22;17.07;;;10.90;;
20294;SDS011;10306;52.128;5.208;2023-10-09T05:16:08;15.00;;;10.80;;
20294;SDS011;10306;52.128;5.208;2023-10-09T05:18:44;15.33;;;10.87;;
20294;SDS011;10306;52.128;5.208;2023-10-09T05:21:20;14.50;;;11.17;;
20294;SDS011;10306;52.128;5.208;2023-10-09T05:23:55;14.43;;;11.10;;
20294;SDS011;10306;52.128;5.208;2023-10-09T05:26:36;14.50;;;11.27;;
20294;SDS011;10306;52.128;5.208;2023-10-09T05:29:19;21.80;;;11.60;;
20294;SDS011;10306;52.128;5.208;2023-10-09T05:31:58;15.47;;;11.03;;
20294;SDS011;10306;52.128;5.208;2023-10-09T05:34:40;15.97;;;11.00;;
20294;SDS011;10306;52.128;5.208;2023-10-09T05:37:28;15.93;;;10.77;;
20294;SDS011;10306;52.128;5.208;2023-10-09T05:39:58;16.00;;;10.03;;
20294;SDS011;10306;52.128;5.208;2023-10-09T05:42:27;15.03;;;9.80;;
20294;SDS011;10306;52.128;5.208;2023-10-09T05:45:06;13.07;;;10.00;;
20294;SDS011;10306;52.128;5.208;2023-10-09T05:47:42;13.97;;;10.77;;
20294;SDS011;10306;52.128;5.208;2023-10-09T05:50:27;16.23;;;10.90;;
20294;SDS011;10306;52.128;5.208;2023-10-09T05:52:54;14.20;;;10.13;;
20294;SDS011;10306;52.128;5.208;2023-10-09T05:55:21;16.07;;;10.50;;
20294;SDS011;10306;52.128;5.208;2023-10-09T05:57:51;17.67;;;10.37;;
20294;SDS011;10306;52.128;5.208;2023-10-09T06:00:36;13.67;;;10.20;;
20294;SDS011;10306;52.128;5.208;2023-10-09T06:03:20;13.03;;;10.20;;
20294;SDS011;10306;52.128;5.208;2023-10-09T06:05:54;12.23;;;9.80;;
20294;SDS011;10306;52.128;5.208;2023-10-09T06:08:24;12.83;;;9.53;;
20294;SDS011;10306;52.128;5.208;2023-10-09T06:10:52;12.77;;;9.17;;
20294;SDS011;10306;52.128;5.208;2023-10-09T06:13:36;15.13;;;9.70;;
20294;SDS011;10306;52.128;5.208;2023-10-09T06:16:02;12.77;;;8.93;;
20294;SDS011;10306;52.128;5.208;2023-10-09T06:18:45;18.43;;;9.70;;
20294;SDS011;10306;52.128;5.208;2023-10-09T06:21:19;10.87;;;8.70;;
20294;SDS011;10306;52.128;5.208;2023-10-09T06:24:03;12.33;;;9.07;;
20294;SDS011;10306;52.128;5.208;2023-10-09T06:26:43;12.37;;;8.80;;
20294;SDS011;10306;52.128;5.208;2023-10-09T06:29:28;16.00;;;9.20;;
20294;SDS011;10306;52.128;5.208;2023-10-09T06:32:09;16.57;;;9.43;;
20294;SDS011;10306;52.128;5.208;2023-10-09T06:34:59;10.70;;;9.43;;
20294;SDS011;10306;52.128;5.208;2023-10-09T06:37:44;16.40;;;9.50;;
20294;SDS011;10306;52.128;5.208;2023-10-09T06:40:26;17.60;;;10.10;;
20294;SDS011;10306;52.128;5.208;2023-10-09T06:43:10;15.70;;;9.80;;
20294;SDS011;10306;52.128;5.208;2023-10-09T06:45:42;14.93;;;8.57;;
20294;SDS011;10306;52.128;5.208;2023-10-09T06:48:09;15.27;;;9.67;;
20294;SDS011;10306;52.128;5.208;2023-10-09T06:50:54;10.30;;;8.67;;
20294;SDS011;10306;52.128;5.208;2023-10-09T06:53:32;16.07;;;9.00;;
20294;SDS011;10306;52.128;5.208;2023-10-09T06:56:17;15.37;;;9.83;;
20294;SDS011;10306;52.128;5.208;2023-10-09T07:01:23;15.73;;;10.07;;
20294;SDS011;10306;52.128;5.208;2023-10-09T07:03:52;15.53;;;10.17;;
20294;SDS011;10306;52.128;5.208;2023-10-09T07:06:19;14.67;;;10.13;;
20294;SDS011;10306;52.128;5.208;2023-10-09T07:09:00;16.83;;;9.27;;
20294;SDS011;10306;52.128;5.208;2023-10-09T07:11:31;12.70;;;9.10;;
20294;SDS011;10306;52.128;5.208;2023-10-09T07:17:05;13.50;;;9.57;;
20294;SDS011;10306;52.128;5.208;2023-10-09T07:19:50;17.03;;;9.60;;
20294;SDS011;10306;52.128;5.208;2023-10-09T07:22:20;13.03;;;9.20;;
20294;SDS011;10306;52.128;5.208;2023-10-09T07:24:46;16.87;;;9.10;;
20294;SDS011;10306;52.128;5.208;2023-10-09T07:27:25;13.20;;;8.33;;
20294;SDS011;10306;52.128;5.208;2023-10-09T07:30:17;13.47;;;9.53;;
20294;SDS011;10306;52.128;5.208;2023-10-09T07:32:56;15.00;;;9.27;;
20294;SDS011;10306;52.128;5.208;2023-10-09T07:35:43;13.53;;;8.73;;
20294;SDS011;10306;52.128;5.208;2023-10-09T07:38:12;12.67;;;8.73;;
20294;SDS011;10306;52.128;5.208;2023-10-09T07:40:40;12.07;;;8.80;;
20294;SDS011;10306;52.128;5.208;2023-10-09T07:43:26;12.77;;;9.57;;
20294;SDS011;10306;52.128;5.208;2023-10-09T07:46:12;12.90;;;9.03;;
20294;SDS011;10306;52.128;5.208;2023-10-09T07:48:57;10.33;;;9.00;;
20294;SDS011;10306;52.128;5.208;2023-10-09T07:51:25;12.63;;;9.43;;
20294;SDS011;10306;52.128;5.208;2023-10-09T07:53:58;12.13;;;8.90;;
20294;SDS011;10306;52.128;5.208;2023-10-09T07:56:37;11.70;;;9.00;;
20294;SDS011;10306;52.128;5.208;2023-10-09T07:59:18;11.90;;;8.80;;
20294;SDS011;10306;52.128;5.208;2023-10-09T08:01:45;17.17;;;10.23;;
20294;SDS011;10306;52.128;5.208;2023-10-09T08:04:25;15.23;;;9.70;;
20294;SDS011;10306;52.128;5.208;2023-10-09T08:07:05;13.17;;;8.97;;
20294;SDS011;10306;52.128;5.208;2023-10-09T08:09:32;14.83;;;9.60;;
20294;SDS011;10306;52.128;5.208;2023-10-09T08:12:11;15.63;;;10.13;;
20294;SDS011;10306;52.128;5.208;2023-10-09T08:14:57;14.27;;;9.50;;
20294;SDS011;10306;52.128;5.208;2023-10-09T08:18:01;11.90;;;9.10;;
20294;SDS011;10306;52.128;5.208;2023-10-09T08:20:38;14.70;;;9.77;;
20294;SDS011;10306;52.128;5.208;2023-10-09T08:23:23;15.30;;;9.60;;
20294;SDS011;10306;52.128;5.208;2023-10-09T08:26:02;11.63;;;9.10;;
20294;SDS011;10306;52.128;5.208;2023-10-09T08:28:47;14.67;;;9.23;;
20294;SDS011;10306;52.128;5.208;2023-10-09T08:31:17;14.07;;;9.40;;
20294;SDS011;10306;52.128;5.208;2023-10-09T08:34:02;12.77;;;9.33;;
20294;SDS011;10306;52.128;5.208;2023-10-09T08:36:29;12.77;;;9.57;;
20294;SDS011;10306;52.128;5.208;2023-10-09T08:39:01;11.10;;;9.87;;
20294;SDS011;10306;52.128;5.208;2023-10-09T08:41:41;16.00;;;9.03;;
20294;SDS011;10306;52.128;5.208;2023-10-09T08:44:07;13.73;;;9.53;;
20294;SDS011;10306;52.128;5.208;2023-10-09T08:46:40;11.67;;;9.80;;
20294;SDS011;10306;52.128;5.208;2023-10-09T08:49:07;9.83;;;8.47;;
20294;SDS011;10306;52.128;5.208;2023-10-09T08:51:34;12.33;;;8.80;;
20294;SDS011;10306;52.128;5.208;2023-10-09T08:54:01;14.83;;;8.97;;
20294;SDS011;10306;52.128;5.208;2023-10-09T08:56:27;12.30;;;8.27;;
20294;SDS011;10306;52.128;5.208;2023-10-09T08:58:56;13.03;;;8.10;;
20294;SDS011;10306;52.128;5.208;2023-10-09T09:01:22;10.90;;;7.80;;
20294;SDS011;10306;52.128;5.208;2023-10-09T09:03:56;8.50;;;7.63;;
20294;SDS011;10306;52.128;5.208;2023-10-09T09:06:35;11.13;;;7.63;;
20294;SDS011;10306;52.128;5.208;2023-10-09T09:09:11;8.40;;;7.53;;
20294;SDS011;10306;52.128;5.208;2023-10-09T09:11:41;10.33;;;7.43;;
20294;SDS011;10306;52.128;5.208;2023-10-09T09:14:17;9.53;;;6.87;;
20294;SDS011;10306;52.128;5.208;2023-10-09T09:16:44;11.97;;;7.37;;
20294;SDS011;10306;52.128;5.208;2023-10-09T09:19:14;12.10;;;7.33;;
20294;SDS011;10306;52.128;5.208;2023-10-09T09:21:47;9.37;;;6.73;;
20294;SDS011;10306;52.128;5.208;2023-10-09T09:24:14;7.67;;;6.67;;
20294;SDS011;10306;52.128;5.208;2023-10-09T09:26:46;11.67;;;6.70;;
20294;SDS011;10306;52.128;5.208;2023-10-09T09:29:12;9.47;;;6.90;;
20294;SDS011;10306;52.128;5.208;2023-10-09T09:31:39;12.47;;;6.30;;
20294;SDS011;10306;52.128;5.208;2023-10-09T09:34:17;8.17;;;6.53;;
20294;SDS011;10306;52.128;5.208;2023-10-09T09:36:54;8.43;;;6.37;;
20294;SDS011;10306;52.128;5.208;2023-10-09T09:39:26;10.57;;;6.67;;
20294;SDS011;10306;52.128;5.208;2023-10-09T09:41:57;9.90;;;6.13;;
20294;SDS011;10306;52.128;5.208;2023-10-09T09:44:35;7.80;;;6.60;;
20294;SDS011;10306;52.128;5.208;2023-10-09T09:47:08;11.43;;;6.57;;
20294;SDS011;10306;52.128;5.208;2023-10-09T09:49:37;8.63;;;6.10;;
20294;SDS011;10306;52.128;5.208;2023-10-09T09:52:04;7.40;;;5.63;;
20294;SDS011;10306;52.128;5.208;2023-10-09T09:54:35;12.47;;;6.27;;
20294;SDS011;10306;52.128;5.208;2023-10-09T09:57:03;8.50;;;6.33;;
20294;SDS011;10306;52.128;5.208;2023-10-09T09:59:34;9.17;;;6.23;;
20294;SDS011;10306;52.128;5.208;2023-10-09T10:02:05;13.97;;;5.70;;
20294;SDS011;10306;52.128;5.208;2023-10-09T10:04:31;12.90;;;5.80;;
20294;SDS011;10306;52.128;5.208;2023-10-09T10:07:00;7.60;;;5.50;;
20294;SDS011;10306;52.128;5.208;2023-10-09T10:09:34;9.00;;;5.87;;
20294;SDS011;10306;52.128;5.208;2023-10-09T10:12:03;8.20;;;5.57;;
20294;SDS011;10306;52.128;5.208;2023-10-09T10:14:56;7.93;;;5.63;;
20294;SDS011;10306;52.128;5.208;2023-10-09T10:20:25;9.77;;;5.67;;
20294;SDS011;10306;52.128;5.208;2023-10-09T10:25:37;12.77;;;6.07;;
20294;SDS011;10306;52.128;5.208;2023-10-09T10:28:23;9.82;;;6.15;;
20294;SDS011;10306;52.128;5.208;2023-10-09T10:31:10;9.33;;;5.33;;
20294;SDS011;10306;52.128;5.208;2023-10-09T10:34:02;8.20;;;5.60;;
20294;SDS011;10306;52.128;5.208;2023-10-09T10:36:31;9.50;;;6.00;;
20294;SDS011;10306;52.128;5.208;2023-10-09T10:39:03;9.53;;;6.23;;
20294;SDS011;10306;52.128;5.208;2023-10-09T10:41:29;9.30;;;6.10;;
20294;SDS011;10306;52.128;5.208;2023-10-09T10:44:01;9.02;;;6.15;;
20294;SDS011;10306;52.128;5.208;2023-10-09T10:46:47;8.57;;;5.40;;
20294;SDS011;10306;52.128;5.208;2023-10-09T10:49:19;7.30;;;5.60;;
20294;SDS011;10306;52.128;5.208;2023-10-09T10:51:46;7.57;;;5.53;;
20294;SDS011;10306;52.128;5.208;2023-10-09T10:54:19;7.37;;;5.80;;
20294;SDS011;10306;52.128;5.208;2023-10-09T10:57:20;6.90;;;5.33;;
20294;SDS011;10306;52.128;5.208;2023-10-09T11:00:09;7.27;;;5.30;;
20294;SDS011;10306;52.128;5.208;2023-10-09T11:03:00;9.65;;;5.57;;
20294;SDS011;10306;52.128;5.208;2023-10-09T11:05:42;7.90;;;5.13;;
20294;SDS011;10306;52.128;5.208;2023-10-09T11:08:15;10.87;;;5.60;;
20294;SDS011;10306;52.128;5.208;2023-10-09T11:10:41;9.97;;;5.47;;
20294;SDS011;10306;52.128;5.208;2023-10-09T11:13:21;7.43;;;5.80;;
20294;SDS011;10306;52.128;5.208;2023-10-09T11:15:56;8.07;;;5.67;;
20294;SDS011;10306;52.128;5.208;2023-10-09T11:18:40;8.10;;;5.57;;
20294;SDS011;10306;52.128;5.208;2023-10-09T11:21:12;7.83;;;5.50;;
20294;SDS011;10306;52.128;5.208;2023-10-09T11:23:39;7.30;;;5.37;;
20294;SDS011;10306;52.128;5.208;2023-10-09T11:26:22;6.53;;;5.20;;
20294;SDS011;10306;52.128;5.208;2023-10-09T11:31:42;7.77;;;5.27;;
20294;SDS011;10306;52.128;5.208;2023-10-09T11:34:22;9.10;;;5.73;;
20294;SDS011;10306;52.128;5.208;2023-10-09T11:36:56;7.47;;;5.40;;
20294;SDS011;10306;52.128;5.208;2023-10-09T11:39:24;8.67;;;4.80;;
20294;SDS011;10306;52.128;5.208;2023-10-09T11:42:03;11.33;;;5.83;;
20294;SDS011;10306;52.128;5.208;2023-10-09T11:44:36;5.55;;;5.05;;
20294;SDS011;10306;52.128;5.208;2023-10-09T11:47:04;9.68;;;5.28;;
20294;SDS011;10306;52.128;5.208;2023-10-09T11:49:52;7.07;;;5.07;;
20294;SDS011;10306;52.128;5.208;2023-10-09T11:52:27;8.20;;;6.17;;
20294;SDS011;10306;52.128;5.208;2023-10-09T11:54:56;8.45;;;5.30;;
20294;SDS011;10306;52.128;5.208;2023-10-09T11:57:23;7.72;;;5.10;;
20294;SDS011;10306;52.128;5.208;2023-10-09T11:59:55;8.23;;;5.30;;
20294;SDS011;10306;52.128;5.208;2023-10-09T12:02:22;8.63;;;5.15;;
20294;SDS011;10306;52.128;5.208;2023-10-09T12:04:48;8.50;;;5.22;;
20294;SDS011;10306;52.128;5.208;2023-10-09T12:07:14;6.20;;;4.57;;
20294;SDS011;10306;52.128;5.208;2023-10-09T12:09:40;9.30;;;5.18;;
20294;SDS011;10306;52.128;5.208;2023-10-09T12:12:06;7.22;;;5.10;;
20294;SDS011;10306;52.128;5.208;2023-10-09T12:14:34;8.60;;;5.22;;
20294;SDS011;10306;52.128;5.208;2023-10-09T12:17:02;6.03;;;5.13;;
20294;SDS011;10306;52.128;5.208;2023-10-09T12:19:34;6.45;;;4.95;;
20294;SDS011;10306;52.128;5.208;2023-10-09T12:22:01;9.68;;;5.60;;
20294;SDS011;10306;52.128;5.208;2023-10-09T12:24:29;8.05;;;5.20;;
20294;SDS011;10306;52.128;5.208;2023-10-09T12:26:55;6.50;;;5.15;;
20294;SDS011;10306;52.128;5.208;2023-10-09T12:29:21;9.25;;;6.50;;
20294;SDS011;10306;52.128;5.208;2023-10-09T12:31:47;10.68;;;4.97;;
20294;SDS011;10306;52.128;5.208;2023-10-09T12:34:13;7.72;;;5.00;;
20294;SDS011;10306;52.128;5.208;2023-10-09T12:36:41;6.90;;;4.72;;
20294;SDS011;10306;52.128;5.208;2023-10-09T12:39:09;7.40;;;4.87;;
20294;SDS011;10306;52.128;5.208;2023-10-09T12:41:42;10.27;;;5.85;;
20294;SDS011;10306;52.128;5.208;2023-10-09T12:44:08;5.97;;;5.03;;
20294;SDS011;10306;52.128;5.208;2023-10-09T12:46:43;9.60;;;5.07;;
20294;SDS011;10306;52.128;5.208;2023-10-09T12:49:19;14.85;;;5.57;;
20294;SDS011;10306;52.128;5.208;2023-10-09T12:51:50;6.78;;;4.90;;
20294;SDS011;10306;52.128;5.208;2023-10-09T12:54:16;8.23;;;5.30;;
20294;SDS011;10306;52.128;5.208;2023-10-09T12:56:42;10.87;;;5.57;;
20294;SDS011;10306;52.128;5.208;2023-10-09T12:59:08;7.15;;;5.05;;
20294;SDS011;10306;52.128;5.208;2023-10-09T13:01:36;7.38;;;5.00;;
20294;SDS011;10306;52.128;5.208;2023-10-09T13:04:12;8.68;;;5.55;;
20294;SDS011;10306;52.128;5.208;2023-10-09T13:06:41;8.40;;;5.27;;
20294;SDS011;10306;52.128;5.208;2023-10-09T13:09:13;6.43;;;5.73;;
20294;SDS011;10306;52.128;5.208;2023-10-09T13:11:40;9.57;;;5.40;;
20294;SDS011;10306;52.128;5.208;2023-10-09T13:14:06;7.72;;;5.10;;
20294;SDS011;10306;52.128;5.208;2023-10-09T13:16:48;8.57;;;5.27;;
20294;SDS011;10306;52.128;5.208;2023-10-09T13:19:17;8.80;;;5.60;;
20294;SDS011;10306;52.128;5.208;2023-10-09T13:21:43;5.80;;;4.73;;
20294;SDS011;10306;52.128;5.208;2023-10-09T13:24:10;9.53;;;5.17;;
20294;SDS011;10306;52.128;5.208;2023-10-09T13:26:41;10.10;;;5.43;;
20294;SDS011;10306;52.128;5.208;2023-10-09T13:29:10;7.10;;;5.53;;
20294;SDS011;10306;52.128;5.208;2023-10-09T13:31:36;12.03;;;5.50;;
20294;SDS011;10306;52.128;5.208;2023-10-09T13:34:03;8.23;;;5.13;;
20294;SDS011;10306;52.128;5.208;2023-10-09T13:36:31;6.67;;;4.70;;
20294;SDS011;10306;52.128;5.208;2023-10-09T13:38:59;8.43;;;5.20;;
20294;SDS011;10306;52.128;5.208;2023-10-09T13:41:44;8.93;;;5.10;;
20294;SDS011;10306;52.128;5.208;2023-10-09T13:44:12;6.43;;;4.70;;
20294;SDS011;10306;52.128;5.208;2023-10-09T13:46:39;8.07;;;4.93;;
20294;SDS011;10306;52.128;5.208;2023-10-09T13:49:08;9.10;;;5.33;;
20294;SDS011;10306;52.128;5.208;2023-10-09T13:51:40;9.83;;;5.33;;
20294;SDS011;10306;52.128;5.208;2023-10-09T13:54:13;7.40;;;4.70;;
20294;SDS011;10306;52.128;5.208;2023-10-09T13:57:00;6.72;;;5.38;;
20294;SDS011;10306;52.128;5.208;2023-10-09T13:59:29;8.63;;;5.37;;
20294;SDS011;10306;52.128;5.208;2023-10-09T14:01:55;9.03;;;5.10;;
20294;SDS011;10306;52.128;5.208;2023-10-09T14:04:25;7.97;;;4.97;;
20294;SDS011;10306;52.128;5.208;2023-10-09T14:06:51;10.10;;;6.50;;
20294;SDS011;10306;52.128;5.208;2023-10-09T14:09:24;12.37;;;5.80;;
20294;SDS011;10306;52.128;5.208;2023-10-09T14:12:00;15.33;;;5.17;;
20294;SDS011;10306;52.128;5.208;2023-10-09T14:16:59;8.27;;;5.60;;
20294;SDS011;10306;52.128;5.208;2023-10-09T14:19:25;9.57;;;5.70;;
20294;SDS011;10306;52.128;5.208;2023-10-09T14:21:51;9.73;;;5.47;;
20294;SDS011;10306;52.128;5.208;2023-10-09T14:24:17;8.77;;;5.27;;
20294;SDS011;10306;52.128;5.208;2023-10-09T14:26:44;8.67;;;6.00;;
20294;SDS011;10306;52.128;5.208;2023-10-09T14:29:11;9.57;;;5.33;;
20294;SDS011;10306;52.128;5.208;2023-10-09T14:31:44;9.50;;;5.83;;
20294;SDS011;10306;52.128;5.208;2023-10-09T14:34:24;8.83;;;5.93;;
20294;SDS011;10306;52.128;5.208;2023-10-09T14:36:54;9.80;;;5.43;;
20294;SDS011;10306;52.128;5.208;2023-10-09T14:39:20;12.57;;;6.27;;
20294;SDS011;10306;52.128;5.208;2023-10-09T14:41:51;6.35;;;5.60;;
20294;SDS011;10306;52.128;5.208;2023-10-09T14:44:19;6.40;;;5.67;;
20294;SDS011;10306;52.128;5.208;2023-10-09T14:46:45;10.27;;;6.03;;
20294;SDS011;10306;52.128;5.208;2023-10-09T14:49:11;9.75;;;5.38;;
20294;SDS011;10306;52.128;5.208;2023-10-09T14:51:39;8.00;;;5.20;;
20294;SDS011;10306;52.128;5.208;2023-10-09T14:54:05;10.73;;;5.63;;
20294;SDS011;10306;52.128;5.208;2023-10-09T14:56:33;9.83;;;6.00;;
20294;SDS011;10306;52.128;5.208;2023-10-09T14:59:01;8.67;;;5.77;;
20294;SDS011;10306;52.128;5.208;2023-10-09T15:01:28;13.60;;;5.80;;
20294;SDS011;10306;52.128;5.208;2023-10-09T15:03:55;7.50;;;5.50;;
20294;SDS011;10306;52.128;5.208;2023-10-09T15:06:22;10.97;;;6.40;;
20294;SDS011;10306;52.128;5.208;2023-10-09T15:08:49;6.77;;;6.07;;
20294;SDS011;10306;52.128;5.208;2023-10-09T15:11:15;13.57;;;6.07;;
20294;SDS011;10306;52.128;5.208;2023-10-09T15:13:41;9.30;;;6.17;;
20294;SDS011;10306;52.128;5.208;2023-10-09T15:16:07;10.13;;;6.60;;
20294;SDS011;10306;52.128;5.208;2023-10-09T15:18:36;8.47;;;6.20;;
20294;SDS011;10306;52.128;5.208;2023-10-09T15:21:02;10.67;;;5.67;;
20294;SDS011;10306;52.128;5.208;2023-10-09T15:23:28;7.77;;;5.77;;
20294;SDS011;10306;52.128;5.208;2023-10-09T15:25:54;9.17;;;5.87;;